Aviation Digital Data Service (ADDS)

Output produced by METARs form (1332 UTC 24 January 2021)
found at http://www.aviationweather.gov/metar/data/
 
METAR text: KMHV 241300Z AUTO 28006KT 10SM CLR 02/M04 A2984 RMK A01
Conditions at: KMHV (MOJAVE , CA, US) observed 1300 UTC 24 January 2021
Temperature: 2.0°C (36°F)
Dewpoint: -4.0°C (25°F) [RH = 64%]
Pressure (altimeter): 29.84 inches Hg (1010.6 mb)
Winds: from the W (280 degrees) at 7 MPH (6 knots; 3.1 m/s)
Visibility: 10 or more miles (16+ km)
Ceiling: at least 12,000 feet AGL
Clouds: sky clear below 12,000 feet AGL
Weather: automated observation with no human augmentation;
there may or may not be significant weather present at this time

METAR text: KMHV 241240Z AUTO 29005KT 10SM CLR 04/M03 A2984 RMK A01
Conditions at: KMHV (MOJAVE , CA, US) observed 1240 UTC 24 January 2021
Temperature: 4.0°C (39°F)
Dewpoint: -3.0°C (27°F) [RH = 60%]
Pressure (altimeter): 29.84 inches Hg (1010.6 mb)
Winds: from the WNW (290 degrees) at 6 MPH (5 knots; 2.6 m/s)
Visibility: 10 or more miles (16+ km)
Ceiling: at least 12,000 feet AGL
Clouds: sky clear below 12,000 feet AGL
Weather: automated observation with no human augmentation;
there may or may not be significant weather present at this time

METAR text: KMHV 241220Z AUTO VRB06G11KT 10SM FEW048 FEW110 03/M03 A2985 RMK A01
Conditions at: KMHV (MOJAVE , CA, US) observed 1220 UTC 24 January 2021
Temperature: 3.0°C (37°F)
Dewpoint: -3.0°C (27°F) [RH = 65%]
Pressure (altimeter): 29.85 inches Hg (1010.9 mb)
Winds: variable direction winds at 7 MPH (6 knots; 3.1 m/s)
gusting to 13 MPH (11 knots; 5.7 m/s)
Visibility: 10 or more miles (16+ km)
Ceiling: at least 12,000 feet AGL
Clouds: few clouds at 4800 feet AGL
few clouds at 11000 feet AGL
Weather: automated observation with no human augmentation;
there may or may not be significant weather present at this time

METAR text: KMHV 241200Z AUTO 30008KT 10SM FEW046 03/M03 A2984 RMK A01
Conditions at: KMHV (MOJAVE , CA, US) observed 1200 UTC 24 January 2021
Temperature: 3.0°C (37°F)
Dewpoint: -3.0°C (27°F) [RH = 65%]
Pressure (altimeter): 29.84 inches Hg (1010.6 mb)
Winds: from the WNW (300 degrees) at 9 MPH (8 knots; 4.1 m/s)
Visibility: 10 or more miles (16+ km)
Ceiling: at least 12,000 feet AGL
Clouds: few clouds at 4600 feet AGL
Weather: automated observation with no human augmentation;
there may or may not be significant weather present at this time

METAR text: KMHV 241140Z AUTO 31010KT 10SM FEW044 03/M03 A2985 RMK A01
Conditions at: KMHV (MOJAVE , CA, US) observed 1140 UTC 24 January 2021
Temperature: 3.0°C (37°F)
Dewpoint: -3.0°C (27°F) [RH = 65%]
Pressure (altimeter): 29.85 inches Hg (1010.9 mb)
Winds: from the NW (310 degrees) at 12 MPH (10 knots; 5.1 m/s)
Visibility: 10 or more miles (16+ km)
Ceiling: at least 12,000 feet AGL
Clouds: few clouds at 4400 feet AGL
Weather: automated observation with no human augmentation;
there may or may not be significant weather present at this time

METAR text: KMHV 241120Z AUTO 30010KT 10SM CLR 03/M02 A2985 RMK A01
Conditions at: KMHV (MOJAVE , CA, US) observed 1120 UTC 24 January 2021
Temperature: 3.0°C (37°F)
Dewpoint: -2.0°C (28°F) [RH = 70%]
Pressure (altimeter): 29.85 inches Hg (1010.9 mb)
Winds: from the WNW (300 degrees) at 12 MPH (10 knots; 5.1 m/s)
Visibility: 10 or more miles (16+ km)
Ceiling: at least 12,000 feet AGL
Clouds: sky clear below 12,000 feet AGL
Weather: automated observation with no human augmentation;
there may or may not be significant weather present at this time

METAR text: KMHV 241100Z AUTO 33005KT 10SM FEW044 FEW050 04/M03 A2986 RMK A01
Conditions at: KMHV (MOJAVE , CA, US) observed 1100 UTC 24 January 2021
Temperature: 4.0°C (39°F)
Dewpoint: -3.0°C (27°F) [RH = 60%]
Pressure (altimeter): 29.86 inches Hg (1011.3 mb)
Winds: from the NNW (330 degrees) at 6 MPH (5 knots; 2.6 m/s)
Visibility: 10 or more miles (16+ km)
Ceiling: at least 12,000 feet AGL
Clouds: few clouds at 4400 feet AGL
few clouds at 5000 feet AGL
Weather: automated observation with no human augmentation;
there may or may not be significant weather present at this time

METAR text: KMHV 241040Z AUTO 33008G14KT 310V010 10SM CLR 04/M02 A2986 RMK A01
Conditions at: KMHV (MOJAVE , CA, US) observed 1040 UTC 24 January 2021
Temperature: 4.0°C (39°F)
Dewpoint: -2.0°C (28°F) [RH = 65%]
Pressure (altimeter): 29.86 inches Hg (1011.3 mb)
Winds: from the NNW (330 degrees) at 9 MPH (8 knots; 4.1 m/s)
gusting to 16 MPH (14 knots; 7.2 m/s)
Visibility: 10 or more miles (16+ km)
Ceiling: at least 12,000 feet AGL
Clouds: sky clear below 12,000 feet AGL
Weather: automated observation with no human augmentation;
there may or may not be significant weather present at this time

METAR text: KMHV 241020Z AUTO 05004KT 10SM CLR 03/M02 A2986 RMK A01
Conditions at: KMHV (MOJAVE , CA, US) observed 1020 UTC 24 January 2021
Temperature: 3.0°C (37°F)
Dewpoint: -2.0°C (28°F) [RH = 70%]
Pressure (altimeter): 29.86 inches Hg (1011.3 mb)
Winds: from the NE (50 degrees) at 5 MPH (4 knots; 2.1 m/s)
Visibility: 10 or more miles (16+ km)
Ceiling: at least 12,000 feet AGL
Clouds: sky clear below 12,000 feet AGL
Weather: automated observation with no human augmentation;
there may or may not be significant weather present at this time

METAR text: KMHV 241000Z AUTO 00000KT 10SM FEW042 SCT050 SCT055 03/M02 A2986 RMK A01
Conditions at: KMHV (MOJAVE , CA, US) observed 1000 UTC 24 January 2021
Temperature: 3.0°C (37°F)
Dewpoint: -2.0°C (28°F) [RH = 70%]
Pressure (altimeter): 29.86 inches Hg (1011.3 mb)
Winds: calm
Visibility: 10 or more miles (16+ km)
Ceiling: at least 12,000 feet AGL
Clouds: few clouds at 4200 feet AGL
scattered clouds at 5000 feet AGL
scattered clouds at 5500 feet AGL
Weather: automated observation with no human augmentation;
there may or may not be significant weather present at this time

METAR text: KMHV 240940Z AUTO 00000KT 10SM SCT050 BKN055 04/M02 A2986 RMK A01
Conditions at: KMHV (MOJAVE , CA, US) observed 0940 UTC 24 January 2021
Temperature: 4.0°C (39°F)
Dewpoint: -2.0°C (28°F) [RH = 65%]
Pressure (altimeter): 29.86 inches Hg (1011.3 mb)
Winds: calm
Visibility: 10 or more miles (16+ km)
Ceiling: 5500 feet AGL
Clouds: scattered clouds at 5000 feet AGL
broken clouds at 5500 feet AGL
Weather: automated observation with no human augmentation;
there may or may not be significant weather present at this time

METAR text: KMHV 240920Z AUTO 06004KT 10SM BKN050 02/M02 A2986 RMK A01
Conditions at: KMHV (MOJAVE , CA, US) observed 0920 UTC 24 January 2021
Temperature: 2.0°C (36°F)
Dewpoint: -2.0°C (28°F) [RH = 75%]
Pressure (altimeter): 29.86 inches Hg (1011.3 mb)
Winds: from the ENE (60 degrees) at 5 MPH (4 knots; 2.1 m/s)
Visibility: 10 or more miles (16+ km)
Ceiling: 5000 feet AGL
Clouds: broken clouds at 5000 feet AGL
Weather: automated observation with no human augmentation;
there may or may not be significant weather present at this time

METAR text: KMHV 240900Z AUTO 29007KT 10SM FEW044 SCT050 BKN055 03/M02 A2986 RMK A01
Conditions at: KMHV (MOJAVE , CA, US) observed 0900 UTC 24 January 2021
Temperature: 3.0°C (37°F)
Dewpoint: -2.0°C (28°F) [RH = 70%]
Pressure (altimeter): 29.86 inches Hg (1011.3 mb)
Winds: from the WNW (290 degrees) at 8 MPH (7 knots; 3.6 m/s)
Visibility: 10 or more miles (16+ km)
Ceiling: 5500 feet AGL
Clouds: few clouds at 4400 feet AGL
scattered clouds at 5000 feet AGL
broken clouds at 5500 feet AGL
Weather: automated observation with no human augmentation;
there may or may not be significant weather present at this time

METAR text: KMHV 240840Z AUTO 30006KT 10SM SCT050 SCT055 03/M02 A2986 RMK A01
Conditions at: KMHV (MOJAVE , CA, US) observed 0840 UTC 24 January 2021
Temperature: 3.0°C (37°F)
Dewpoint: -2.0°C (28°F) [RH = 70%]
Pressure (altimeter): 29.86 inches Hg (1011.3 mb)
Winds: from the WNW (300 degrees) at 7 MPH (6 knots; 3.1 m/s)
Visibility: 10 or more miles (16+ km)
Ceiling: at least 12,000 feet AGL
Clouds: scattered clouds at 5000 feet AGL
scattered clouds at 5500 feet AGL
Weather: automated observation with no human augmentation;
there may or may not be significant weather present at this time

METAR text: KMHV 240820Z AUTO 31008KT 10SM FEW038 SCT049 BKN060 03/M02 A2986 RMK A01
Conditions at: KMHV (MOJAVE , CA, US) observed 0820 UTC 24 January 2021
Temperature: 3.0°C (37°F)
Dewpoint: -2.0°C (28°F) [RH = 70%]
Pressure (altimeter): 29.86 inches Hg (1011.3 mb)
Winds: from the NW (310 degrees) at 9 MPH (8 knots; 4.1 m/s)
Visibility: 10 or more miles (16+ km)
Ceiling: 6000 feet AGL
Clouds: few clouds at 3800 feet AGL
scattered clouds at 4900 feet AGL
broken clouds at 6000 feet AGL
Weather: automated observation with no human augmentation;
there may or may not be significant weather present at this time

METAR text: KMHV 240800Z AUTO 00000KT 10SM FEW039 SCT045 BKN050 03/M02 A2986 RMK A01
Conditions at: KMHV (MOJAVE , CA, US) observed 0800 UTC 24 January 2021
Temperature: 3.0°C (37°F)
Dewpoint: -2.0°C (28°F) [RH = 70%]
Pressure (altimeter): 29.86 inches Hg (1011.3 mb)
Winds: calm
Visibility: 10 or more miles (16+ km)
Ceiling: 5000 feet AGL
Clouds: few clouds at 3900 feet AGL
scattered clouds at 4500 feet AGL
broken clouds at 5000 feet AGL
Weather: automated observation with no human augmentation;
there may or may not be significant weather present at this time

METAR text: KMHV 240740Z AUTO 00000KT 10SM FEW046 BKN050 BKN065 03/M01 A2986 RMK A01
Conditions at: KMHV (MOJAVE , CA, US) observed 0740 UTC 24 January 2021
Temperature: 3.0°C (37°F)
Dewpoint: -1.0°C (30°F) [RH = 75%]
Pressure (altimeter): 29.86 inches Hg (1011.3 mb)
Winds: calm
Visibility: 10 or more miles (16+ km)
Ceiling: 5000 feet AGL
Clouds: few clouds at 4600 feet AGL
broken clouds at 5000 feet AGL
broken clouds at 6500 feet AGL
Weather: automated observation with no human augmentation;
there may or may not be significant weather present at this time

METAR text: KMHV 240720Z AUTO 30005KT 10SM FEW046 BKN065 BKN075 03/M02 A2986 RMK A01
Conditions at: KMHV (MOJAVE , CA, US) observed 0720 UTC 24 January 2021
Temperature: 3.0°C (37°F)
Dewpoint: -2.0°C (28°F) [RH = 70%]
Pressure (altimeter): 29.86 inches Hg (1011.3 mb)
Winds: from the WNW (300 degrees) at 6 MPH (5 knots; 2.6 m/s)
Visibility: 10 or more miles (16+ km)
Ceiling: 6500 feet AGL
Clouds: few clouds at 4600 feet AGL
broken clouds at 6500 feet AGL
broken clouds at 7500 feet AGL
Weather: automated observation with no human augmentation;
there may or may not be significant weather present at this time

METAR text: KMHV 240700Z AUTO 30007KT 10SM OVC070 03/M01 A2987 RMK A01
Conditions at: KMHV (MOJAVE , CA, US) observed 0700 UTC 24 January 2021
Temperature: 3.0°C (37°F)
Dewpoint: -1.0°C (30°F) [RH = 75%]
Pressure (altimeter): 29.87 inches Hg (1011.6 mb)
Winds: from the WNW (300 degrees) at 8 MPH (7 knots; 3.6 m/s)
Visibility: 10 or more miles (16+ km)
Ceiling: 7000 feet AGL
Clouds: overcast cloud deck at 7000 feet AGL
Weather: automated observation with no human augmentation;
there may or may not be significant weather present at this time

METAR text: KMHV 240640Z AUTO 29005KT 10SM FEW050 OVC070 02/M01 A2987 RMK A01
Conditions at: KMHV (MOJAVE , CA, US) observed 0640 UTC 24 January 2021
Temperature: 2.0°C (36°F)
Dewpoint: -1.0°C (30°F) [RH = 80%]
Pressure (altimeter): 29.87 inches Hg (1011.6 mb)
Winds: from the WNW (290 degrees) at 6 MPH (5 knots; 2.6 m/s)
Visibility: 10 or more miles (16+ km)
Ceiling: 7000 feet AGL
Clouds: few clouds at 5000 feet AGL
overcast cloud deck at 7000 feet AGL
Weather: automated observation with no human augmentation;
there may or may not be significant weather present at this time

METAR text: KMHV 240620Z AUTO 28008KT 10SM BKN050 BKN065 OVC080 03/M01 A2987 RMK A01
Conditions at: KMHV (MOJAVE , CA, US) observed 0620 UTC 24 January 2021
Temperature: 3.0°C (37°F)
Dewpoint: -1.0°C (30°F) [RH = 75%]
Pressure (altimeter): 29.87 inches Hg (1011.6 mb)
Winds: from the W (280 degrees) at 9 MPH (8 knots; 4.1 m/s)
Visibility: 10 or more miles (16+ km)
Ceiling: 5000 feet AGL
Clouds: broken clouds at 5000 feet AGL
broken clouds at 6500 feet AGL
overcast cloud deck at 8000 feet AGL
Weather: automated observation with no human augmentation;
there may or may not be significant weather present at this time

METAR text: KMHV 240600Z AUTO 31005KT 10SM FEW043 SCT055 OVC075 03/M01 A2987 RMK A01
Conditions at: KMHV (MOJAVE , CA, US) observed 0600 UTC 24 January 2021
Temperature: 3.0°C (37°F)
Dewpoint: -1.0°C (30°F) [RH = 75%]
Pressure (altimeter): 29.87 inches Hg (1011.6 mb)
Winds: from the NW (310 degrees) at 6 MPH (5 knots; 2.6 m/s)
Visibility: 10 or more miles (16+ km)
Ceiling: 7500 feet AGL
Clouds: few clouds at 4300 feet AGL
scattered clouds at 5500 feet AGL
overcast cloud deck at 7500 feet AGL
Weather: automated observation with no human augmentation;
there may or may not be significant weather present at this time

METAR text: KMHV 240540Z AUTO 00000KT 10SM SCT045 SCT055 OVC075 04/M01 A2987 RMK A01
Conditions at: KMHV (MOJAVE , CA, US) observed 0540 UTC 24 January 2021
Temperature: 4.0°C (39°F)
Dewpoint: -1.0°C (30°F) [RH = 70%]
Pressure (altimeter): 29.87 inches Hg (1011.6 mb)
Winds: calm
Visibility: 10 or more miles (16+ km)
Ceiling: 7500 feet AGL
Clouds: scattered clouds at 4500 feet AGL
scattered clouds at 5500 feet AGL
overcast cloud deck at 7500 feet AGL
Weather: automated observation with no human augmentation;
there may or may not be significant weather present at this time

METAR text: KMHV 240520Z AUTO 00000KT 10SM FEW040 SCT046 OVC070 05/M01 A2987 RMK A01
Conditions at: KMHV (MOJAVE , CA, US) observed 0520 UTC 24 January 2021
Temperature: 5.0°C (41°F)
Dewpoint: -1.0°C (30°F) [RH = 65%]
Pressure (altimeter): 29.87 inches Hg (1011.6 mb)
Winds: calm
Visibility: 10 or more miles (16+ km)
Ceiling: 7000 feet AGL
Clouds: few clouds at 4000 feet AGL
scattered clouds at 4600 feet AGL
overcast cloud deck at 7000 feet AGL
Weather: automated observation with no human augmentation;
there may or may not be significant weather present at this time

METAR text: KMHV 240500Z AUTO 00000KT 10SM FEW044 BKN070 OVC075 05/M01 A2987 RMK A01
Conditions at: KMHV (MOJAVE , CA, US) observed 0500 UTC 24 January 2021
Temperature: 5.0°C (41°F)
Dewpoint: -1.0°C (30°F) [RH = 65%]
Pressure (altimeter): 29.87 inches Hg (1011.6 mb)
Winds: calm
Visibility: 10 or more miles (16+ km)
Ceiling: 7000 feet AGL
Clouds: few clouds at 4400 feet AGL
broken clouds at 7000 feet AGL
overcast cloud deck at 7500 feet AGL
Weather: automated observation with no human augmentation;
there may or may not be significant weather present at this time

METAR text: KMHV 240440Z AUTO VRB04KT 10SM SCT043 BKN065 OVC075 06/M02 A2987 RMK A01
Conditions at: KMHV (MOJAVE , CA, US) observed 0440 UTC 24 January 2021
Temperature: 6.0°C (43°F)
Dewpoint: -2.0°C (28°F) [RH = 56%]
Pressure (altimeter): 29.87 inches Hg (1011.6 mb)
Winds: variable direction winds at 5 MPH (4 knots; 2.1 m/s)
Visibility: 10 or more miles (16+ km)
Ceiling: 6500 feet AGL
Clouds: scattered clouds at 4300 feet AGL
broken clouds at 6500 feet AGL
overcast cloud deck at 7500 feet AGL
Weather: automated observation with no human augmentation;
there may or may not be significant weather present at this time

METAR text: KMHV 240420Z AUTO VRB06G11KT 10SM OVC044 06/M02 A2986 RMK A01
Conditions at: KMHV (MOJAVE , CA, US) observed 0420 UTC 24 January 2021
Temperature: 6.0°C (43°F)
Dewpoint: -2.0°C (28°F) [RH = 56%]
Pressure (altimeter): 29.86 inches Hg (1011.3 mb)
Winds: variable direction winds at 7 MPH (6 knots; 3.1 m/s)
gusting to 13 MPH (11 knots; 5.7 m/s)
Visibility: 10 or more miles (16+ km)
Ceiling: 4400 feet AGL
Clouds: overcast cloud deck at 4400 feet AGL
Weather: automated observation with no human augmentation;
there may or may not be significant weather present at this time

METAR text: KMHV 240400Z AUTO 36007KT 10SM BKN045 OVC060 06/M02 A2986 RMK A01
Conditions at: KMHV (MOJAVE , CA, US) observed 0400 UTC 24 January 2021
Temperature: 6.0°C (43°F)
Dewpoint: -2.0°C (28°F) [RH = 56%]
Pressure (altimeter): 29.86 inches Hg (1011.3 mb)
Winds: from the N (360 degrees) at 8 MPH (7 knots; 3.6 m/s)
Visibility: 10 or more miles (16+ km)
Ceiling: 4500 feet AGL
Clouds: broken clouds at 4500 feet AGL
overcast cloud deck at 6000 feet AGL
Weather: automated observation with no human augmentation;
there may or may not be significant weather present at this time

METAR text: KMHV 240340Z AUTO 35009KT 10SM BKN046 OVC060 06/M02 A2985 RMK A01
Conditions at: KMHV (MOJAVE , CA, US) observed 0340 UTC 24 January 2021
Temperature: 6.0°C (43°F)
Dewpoint: -2.0°C (28°F) [RH = 56%]
Pressure (altimeter): 29.85 inches Hg (1010.9 mb)
Winds: from the N (350 degrees) at 10 MPH (9 knots; 4.6 m/s)
Visibility: 10 or more miles (16+ km)
Ceiling: 4600 feet AGL
Clouds: broken clouds at 4600 feet AGL
overcast cloud deck at 6000 feet AGL
Weather: automated observation with no human augmentation;
there may or may not be significant weather present at this time

METAR text: KMHV 240320Z AUTO 31007KT 10SM BKN048 OVC065 05/M01 A2985 RMK A01
Conditions at: KMHV (MOJAVE , CA, US) observed 0320 UTC 24 January 2021
Temperature: 5.0°C (41°F)
Dewpoint: -1.0°C (30°F) [RH = 65%]
Pressure (altimeter): 29.85 inches Hg (1010.9 mb)
Winds: from the NW (310 degrees) at 8 MPH (7 knots; 3.6 m/s)
Visibility: 10 or more miles (16+ km)
Ceiling: 4800 feet AGL
Clouds: broken clouds at 4800 feet AGL
overcast cloud deck at 6500 feet AGL
Weather: automated observation with no human augmentation;
there may or may not be significant weather present at this time

METAR text: KMHV 240300Z AUTO 31008KT 10SM BKN050 BKN060 OVC110 04/M01 A2985 RMK A01
Conditions at: KMHV (MOJAVE , CA, US) observed 0300 UTC 24 January 2021
Temperature: 4.0°C (39°F)
Dewpoint: -1.0°C (30°F) [RH = 70%]
Pressure (altimeter): 29.85 inches Hg (1010.9 mb)
Winds: from the NW (310 degrees) at 9 MPH (8 knots; 4.1 m/s)
Visibility: 10 or more miles (16+ km)
Ceiling: 5000 feet AGL
Clouds: broken clouds at 5000 feet AGL
broken clouds at 6000 feet AGL
overcast cloud deck at 11000 feet AGL
Weather: automated observation with no human augmentation;
there may or may not be significant weather present at this time

METAR text: KMHV 240240Z AUTO 30007KT 10SM BKN075 OVC110 04/M01 A2985 RMK A01
Conditions at: KMHV (MOJAVE , CA, US) observed 0240 UTC 24 January 2021
Temperature: 4.0°C (39°F)
Dewpoint: -1.0°C (30°F) [RH = 70%]
Pressure (altimeter): 29.85 inches Hg (1010.9 mb)
Winds: from the WNW (300 degrees) at 8 MPH (7 knots; 3.6 m/s)
Visibility: 10 or more miles (16+ km)
Ceiling: 7500 feet AGL
Clouds: broken clouds at 7500 feet AGL
overcast cloud deck at 11000 feet AGL
Weather: automated observation with no human augmentation;
there may or may not be significant weather present at this time

METAR text: KMHV 240220Z AUTO 31008KT 10SM OVC075 04/M00 A2984 RMK A01
Conditions at: KMHV (MOJAVE , CA, US) observed 0220 UTC 24 January 2021
Temperature: 4.0°C (39°F)
Dewpoint: 0.0°C (32°F) [RH = 75%]
Pressure (altimeter): 29.84 inches Hg (1010.6 mb)
Winds: from the NW (310 degrees) at 9 MPH (8 knots; 4.1 m/s)
Visibility: 10 or more miles (16+ km)
Ceiling: 7500 feet AGL
Clouds: overcast cloud deck at 7500 feet AGL
Weather: automated observation with no human augmentation;
there may or may not be significant weather present at this time

METAR text: KMHV 240200Z AUTO 31007KT 10SM OVC075 05/00 A2984 RMK A01
Conditions at: KMHV (MOJAVE , CA, US) observed 0200 UTC 24 January 2021
Temperature: 5.0°C (41°F)
Dewpoint: 0.0°C (32°F) [RH = 70%]
Pressure (altimeter): 29.84 inches Hg (1010.6 mb)
Winds: from the NW (310 degrees) at 8 MPH (7 knots; 3.6 m/s)
Visibility: 10 or more miles (16+ km)
Ceiling: 7500 feet AGL
Clouds: overcast cloud deck at 7500 feet AGL
Weather: automated observation with no human augmentation;
there may or may not be significant weather present at this time

METAR text: KMHV 240140Z AUTO 30006KT 10SM SCT075 05/00 A2984 RMK A01
Conditions at: KMHV (MOJAVE , CA, US) observed 0140 UTC 24 January 2021
Temperature: 5.0°C (41°F)
Dewpoint: 0.0°C (32°F) [RH = 70%]
Pressure (altimeter): 29.84 inches Hg (1010.6 mb)
Winds: from the WNW (300 degrees) at 7 MPH (6 knots; 3.1 m/s)
Visibility: 10 or more miles (16+ km)
Ceiling: at least 12,000 feet AGL
Clouds: scattered clouds at 7500 feet AGL
Weather: automated observation with no human augmentation;
there may or may not be significant weather present at this time

METAR text: KMHV 240120Z AUTO 30006KT 10SM CLR 05/00 A2983 RMK A01
Conditions at: KMHV (MOJAVE , CA, US) observed 0120 UTC 24 January 2021
Temperature: 5.0°C (41°F)
Dewpoint: 0.0°C (32°F) [RH = 70%]
Pressure (altimeter): 29.83 inches Hg (1010.2 mb)
Winds: from the WNW (300 degrees) at 7 MPH (6 knots; 3.1 m/s)
Visibility: 10 or more miles (16+ km)
Ceiling: at least 12,000 feet AGL
Clouds: sky clear below 12,000 feet AGL
Weather: automated observation with no human augmentation;
there may or may not be significant weather present at this time

METAR text: KMHV 240100Z AUTO 00000KT 10SM CLR 06/01 A2983 RMK A01
Conditions at: KMHV (MOJAVE , CA, US) observed 0100 UTC 24 January 2021
Temperature: 6.0°C (43°F)
Dewpoint: 1.0°C (34°F) [RH = 70%]
Pressure (altimeter): 29.83 inches Hg (1010.2 mb)
Winds: calm
Visibility: 10 or more miles (16+ km)
Ceiling: at least 12,000 feet AGL
Clouds: sky clear below 12,000 feet AGL
Weather: automated observation with no human augmentation;
there may or may not be significant weather present at this time

METAR text: KMHV 240040Z AUTO 26005KT 10SM BKN080 06/01 A2983 RMK A01
Conditions at: KMHV (MOJAVE , CA, US) observed 0040 UTC 24 January 2021
Temperature: 6.0°C (43°F)
Dewpoint: 1.0°C (34°F) [RH = 70%]
Pressure (altimeter): 29.83 inches Hg (1010.2 mb)
Winds: from the W (260 degrees) at 6 MPH (5 knots; 2.6 m/s)
Visibility: 10 or more miles (16+ km)
Ceiling: 8000 feet AGL
Clouds: broken clouds at 8000 feet AGL
Weather: automated observation with no human augmentation;
there may or may not be significant weather present at this time

METAR text: KMHV 240020Z AUTO 26006KT 10SM BKN085 06/01 A2983 RMK A01
Conditions at: KMHV (MOJAVE , CA, US) observed 0020 UTC 24 January 2021
Temperature: 6.0°C (43°F)
Dewpoint: 1.0°C (34°F) [RH = 70%]
Pressure (altimeter): 29.83 inches Hg (1010.2 mb)
Winds: from the W (260 degrees) at 7 MPH (6 knots; 3.1 m/s)
Visibility: 10 or more miles (16+ km)
Ceiling: 8500 feet AGL
Clouds: broken clouds at 8500 feet AGL
Weather: automated observation with no human augmentation;
there may or may not be significant weather present at this time

METAR text: KMHV 240000Z AUTO 28009KT 10SM FEW050 FEW085 05/M00 A2983 RMK A01
Conditions at: KMHV (MOJAVE , CA, US) observed 0000 UTC 24 January 2021
Temperature: 5.0°C (41°F)
Dewpoint: 0.0°C (32°F) [RH = 70%]
Pressure (altimeter): 29.83 inches Hg (1010.2 mb)
Winds: from the W (280 degrees) at 10 MPH (9 knots; 4.6 m/s)
Visibility: 10 or more miles (16+ km)
Ceiling: at least 12,000 feet AGL
Clouds: few clouds at 5000 feet AGL
few clouds at 8500 feet AGL
Weather: automated observation with no human augmentation;
there may or may not be significant weather present at this time

METAR text: KMHV 232340Z AUTO 28014KT 10SM FEW041 FEW050 05/01 A2983 RMK A01
Conditions at: KMHV (MOJAVE , CA, US) observed 2340 UTC 23 January 2021
Temperature: 5.0°C (41°F)
Dewpoint: 1.0°C (34°F) [RH = 75%]
Pressure (altimeter): 29.83 inches Hg (1010.2 mb)
Winds: from the W (280 degrees) at 16 MPH (14 knots; 7.2 m/s)
Visibility: 10 or more miles (16+ km)
Ceiling: at least 12,000 feet AGL
Clouds: few clouds at 4100 feet AGL
few clouds at 5000 feet AGL
Weather: automated observation with no human augmentation;
there may or may not be significant weather present at this time

METAR text: KMHV 232320Z AUTO 31008G14KT 10SM FEW043 FEW049 SCT060 05/M00 A2983 RMK A01
Conditions at: KMHV (MOJAVE , CA, US) observed 2320 UTC 23 January 2021
Temperature: 5.0°C (41°F)
Dewpoint: 0.0°C (32°F) [RH = 70%]
Pressure (altimeter): 29.83 inches Hg (1010.2 mb)
Winds: from the NW (310 degrees) at 9 MPH (8 knots; 4.1 m/s)
gusting to 16 MPH (14 knots; 7.2 m/s)
Visibility: 10 or more miles (16+ km)
Ceiling: at least 12,000 feet AGL
Clouds: few clouds at 4300 feet AGL
few clouds at 4900 feet AGL
scattered clouds at 6000 feet AGL
Weather: automated observation with no human augmentation;
there may or may not be significant weather present at this time

METAR text: KMHV 232300Z AUTO 31015KT 10SM FEW030 FEW045 BKN055 04/01 A2983 RMK A01
Conditions at: KMHV (MOJAVE , CA, US) observed 2300 UTC 23 January 2021
Temperature: 4.0°C (39°F)
Dewpoint: 1.0°C (34°F) [RH = 81%]
Pressure (altimeter): 29.83 inches Hg (1010.2 mb)
Winds: from the NW (310 degrees) at 17 MPH (15 knots; 7.7 m/s)
Visibility: 10 or more miles (16+ km)
Ceiling: 5500 feet AGL
Clouds: few clouds at 3000 feet AGL
few clouds at 4500 feet AGL
broken clouds at 5500 feet AGL
Weather: automated observation with no human augmentation;
there may or may not be significant weather present at this time

METAR text: KMHV 232240Z AUTO 31016G22KT 7SM FEW026 FEW032 BKN038 05/01 A2983 RMK A01
Conditions at: KMHV (MOJAVE , CA, US) observed 2240 UTC 23 January 2021
Temperature: 5.0°C (41°F)
Dewpoint: 1.0°C (34°F) [RH = 75%]
Pressure (altimeter): 29.83 inches Hg (1010.2 mb)
Winds: from the NW (310 degrees) at 18 MPH (16 knots; 8.2 m/s)
gusting to 25 MPH (22 knots; 11.3 m/s)
Visibility: 7 miles (11 km)
Ceiling: 3800 feet AGL
Clouds: few clouds at 2600 feet AGL
few clouds at 3200 feet AGL
broken clouds at 3800 feet AGL
Weather: automated observation with no human augmentation;
there may or may not be significant weather present at this time

METAR text: KMHV 232220Z AUTO 31016KT 10SM FEW025 OVC039 06/00 A2983 RMK A01
Conditions at: KMHV (MOJAVE , CA, US) observed 2220 UTC 23 January 2021
Temperature: 6.0°C (43°F)
Dewpoint: 0.0°C (32°F) [RH = 65%]
Pressure (altimeter): 29.83 inches Hg (1010.2 mb)
Winds: from the NW (310 degrees) at 18 MPH (16 knots; 8.2 m/s)
Visibility: 10 or more miles (16+ km)
Ceiling: 3900 feet AGL
Clouds: few clouds at 2500 feet AGL
overcast cloud deck at 3900 feet AGL
Weather: automated observation with no human augmentation;
there may or may not be significant weather present at this time

METAR text: KMHV 232200Z AUTO VRB05KT 10SM BKN040 BKN048 OVC060 08/M02 A2982 RMK A01
Conditions at: KMHV (MOJAVE , CA, US) observed 2200 UTC 23 January 2021
Temperature: 8.0°C (46°F)
Dewpoint: -2.0°C (28°F) [RH = 49%]
Pressure (altimeter): 29.82 inches Hg (1009.9 mb)
Winds: variable direction winds at 6 MPH (5 knots; 2.6 m/s)
Visibility: 10 or more miles (16+ km)
Ceiling: 4000 feet AGL
Clouds: broken clouds at 4000 feet AGL
broken clouds at 4800 feet AGL
overcast cloud deck at 6000 feet AGL
Weather: automated observation with no human augmentation;
there may or may not be significant weather present at this time

METAR text: KMHV 232140Z AUTO 09005KT 10SM BKN040 BKN047 OVC060 08/M02 A2982 RMK A01
Conditions at: KMHV (MOJAVE , CA, US) observed 2140 UTC 23 January 2021
Temperature: 8.0°C (46°F)
Dewpoint: -2.0°C (28°F) [RH = 49%]
Pressure (altimeter): 29.82 inches Hg (1009.9 mb)
Winds: from the E (90 degrees) at 6 MPH (5 knots; 2.6 m/s)
Visibility: 10 or more miles (16+ km)
Ceiling: 4000 feet AGL
Clouds: broken clouds at 4000 feet AGL
broken clouds at 4700 feet AGL
overcast cloud deck at 6000 feet AGL
Weather: automated observation with no human augmentation;
there may or may not be significant weather present at this time

METAR text: KMHV 232120Z AUTO 12003KT 10SM FEW041 BKN060 BKN100 08/M02 A2982 RMK A01
Conditions at: KMHV (MOJAVE , CA, US) observed 2120 UTC 23 January 2021
Temperature: 8.0°C (46°F)
Dewpoint: -2.0°C (28°F) [RH = 49%]
Pressure (altimeter): 29.82 inches Hg (1009.9 mb)
Winds: from the ESE (120 degrees) at 3 MPH (3 knots; 1.5 m/s)
Visibility: 10 or more miles (16+ km)
Ceiling: 6000 feet AGL
Clouds: few clouds at 4100 feet AGL
broken clouds at 6000 feet AGL
broken clouds at 10000 feet AGL
Weather: automated observation with no human augmentation;
there may or may not be significant weather present at this time

METAR text: KMHV 232100Z AUTO VRB05KT 10SM FEW043 FEW070 SCT100 08/M02 A2983 RMK A01
Conditions at: KMHV (MOJAVE , CA, US) observed 2100 UTC 23 January 2021
Temperature: 8.0°C (46°F)
Dewpoint: -2.0°C (28°F) [RH = 49%]
Pressure (altimeter): 29.83 inches Hg (1010.2 mb)
Winds: variable direction winds at 6 MPH (5 knots; 2.6 m/s)
Visibility: 10 or more miles (16+ km)
Ceiling: at least 12,000 feet AGL
Clouds: few clouds at 4300 feet AGL
few clouds at 7000 feet AGL
scattered clouds at 10000 feet AGL
Weather: automated observation with no human augmentation;
there may or may not be significant weather present at this time

METAR text: KMHV 232040Z AUTO 08004KT 10SM FEW044 08/M02 A2983 RMK A01
Conditions at: KMHV (MOJAVE , CA, US) observed 2040 UTC 23 January 2021
Temperature: 8.0°C (46°F)
Dewpoint: -2.0°C (28°F) [RH = 49%]
Pressure (altimeter): 29.83 inches Hg (1010.2 mb)
Winds: from the E (80 degrees) at 5 MPH (4 knots; 2.1 m/s)
Visibility: 10 or more miles (16+ km)
Ceiling: at least 12,000 feet AGL
Clouds: few clouds at 4400 feet AGL
Weather: automated observation with no human augmentation;
there may or may not be significant weather present at this time

METAR text: KMHV 232020Z AUTO 09006KT 10SM FEW110 08/M01 A2984 RMK A01
Conditions at: KMHV (MOJAVE , CA, US) observed 2020 UTC 23 January 2021
Temperature: 8.0°C (46°F)
Dewpoint: -1.0°C (30°F) [RH = 53%]
Pressure (altimeter): 29.84 inches Hg (1010.6 mb)
Winds: from the E (90 degrees) at 7 MPH (6 knots; 3.1 m/s)
Visibility: 10 or more miles (16+ km)
Ceiling: at least 12,000 feet AGL
Clouds: few clouds at 11000 feet AGL
Weather: automated observation with no human augmentation;
there may or may not be significant weather present at this time

METAR text: KMHV 232000Z AUTO 00000KT 10SM SCT100 08/M01 A2985 RMK A01
Conditions at: KMHV (MOJAVE , CA, US) observed 2000 UTC 23 January 2021
Temperature: 8.0°C (46°F)
Dewpoint: -1.0°C (30°F) [RH = 53%]
Pressure (altimeter): 29.85 inches Hg (1010.9 mb)
Winds: calm
Visibility: 10 or more miles (16+ km)
Ceiling: at least 12,000 feet AGL
Clouds: scattered clouds at 10000 feet AGL
Weather: automated observation with no human augmentation;
there may or may not be significant weather present at this time

METAR text: KMHV 231940Z AUTO VRB04KT 10SM CLR 07/M01 A2985 RMK A01
Conditions at: KMHV (MOJAVE , CA, US) observed 1940 UTC 23 January 2021
Temperature: 7.0°C (45°F)
Dewpoint: -1.0°C (30°F) [RH = 57%]
Pressure (altimeter): 29.85 inches Hg (1010.9 mb)
Winds: variable direction winds at 5 MPH (4 knots; 2.1 m/s)
Visibility: 10 or more miles (16+ km)
Ceiling: at least 12,000 feet AGL
Clouds: sky clear below 12,000 feet AGL
Weather: automated observation with no human augmentation;
there may or may not be significant weather present at this time

METAR text: KMHV 231920Z AUTO 19004KT 10SM CLR 07/M01 A2986 RMK A01
Conditions at: KMHV (MOJAVE , CA, US) observed 1920 UTC 23 January 2021
Temperature: 7.0°C (45°F)
Dewpoint: -1.0°C (30°F) [RH = 57%]
Pressure (altimeter): 29.86 inches Hg (1011.3 mb)
Winds: from the S (190 degrees) at 5 MPH (4 knots; 2.1 m/s)
Visibility: 10 or more miles (16+ km)
Ceiling: at least 12,000 feet AGL
Clouds: sky clear below 12,000 feet AGL
Weather: automated observation with no human augmentation;
there may or may not be significant weather present at this time

METAR text: KMHV 231900Z AUTO VRB04KT 10SM SCT080 07/M01 A2987 RMK A01
Conditions at: KMHV (MOJAVE , CA, US) observed 1900 UTC 23 January 2021
Temperature: 7.0°C (45°F)
Dewpoint: -1.0°C (30°F) [RH = 57%]
Pressure (altimeter): 29.87 inches Hg (1011.6 mb)
Winds: variable direction winds at 5 MPH (4 knots; 2.1 m/s)
Visibility: 10 or more miles (16+ km)
Ceiling: at least 12,000 feet AGL
Clouds: scattered clouds at 8000 feet AGL
Weather: automated observation with no human augmentation;
there may or may not be significant weather present at this time

METAR text: KMHV 231840Z AUTO 21005KT 10SM BKN080 07/M01 A2988 RMK A01
Conditions at: KMHV (MOJAVE , CA, US) observed 1840 UTC 23 January 2021
Temperature: 7.0°C (45°F)
Dewpoint: -1.0°C (30°F) [RH = 57%]
Pressure (altimeter): 29.88 inches Hg (1011.9 mb)
Winds: from the SSW (210 degrees) at 6 MPH (5 knots; 2.6 m/s)
Visibility: 10 or more miles (16+ km)
Ceiling: 8000 feet AGL
Clouds: broken clouds at 8000 feet AGL
Weather: automated observation with no human augmentation;
there may or may not be significant weather present at this time

METAR text: KMHV 231820Z AUTO 00000KT 10SM CLR 06/M00 A2988 RMK A01
Conditions at: KMHV (MOJAVE , CA, US) observed 1820 UTC 23 January 2021
Temperature: 6.0°C (43°F)
Dewpoint: 0.0°C (32°F) [RH = 65%]
Pressure (altimeter): 29.88 inches Hg (1011.9 mb)
Winds: calm
Visibility: 10 or more miles (16+ km)
Ceiling: at least 12,000 feet AGL
Clouds: sky clear below 12,000 feet AGL
Weather: automated observation with no human augmentation;
there may or may not be significant weather present at this time

METAR text: KMHV 231800Z AUTO 20006KT 10SM CLR 06/M01 A2988 RMK A01
Conditions at: KMHV (MOJAVE , CA, US) observed 1800 UTC 23 January 2021
Temperature: 6.0°C (43°F)
Dewpoint: -1.0°C (30°F) [RH = 61%]
Pressure (altimeter): 29.88 inches Hg (1011.9 mb)
Winds: from the SSW (200 degrees) at 7 MPH (6 knots; 3.1 m/s)
Visibility: 10 or more miles (16+ km)
Ceiling: at least 12,000 feet AGL
Clouds: sky clear below 12,000 feet AGL
Weather: automated observation with no human augmentation;
there may or may not be significant weather present at this time

METAR text: KMHV 231740Z AUTO 21006KT 10SM FEW120 06/M01 A2987 RMK A01
Conditions at: KMHV (MOJAVE , CA, US) observed 1740 UTC 23 January 2021
Temperature: 6.0°C (43°F)
Dewpoint: -1.0°C (30°F) [RH = 61%]
Pressure (altimeter): 29.87 inches Hg (1011.6 mb)
Winds: from the SSW (210 degrees) at 7 MPH (6 knots; 3.1 m/s)
Visibility: 10 or more miles (16+ km)
Ceiling: at least 12,000 feet AGL
Clouds: few clouds at 12000 feet AGL
Weather: automated observation with no human augmentation;
there may or may not be significant weather present at this time

METAR text: KMHV 231720Z AUTO 20006KT 10SM CLR 06/M00 A2987 RMK A01
Conditions at: KMHV (MOJAVE , CA, US) observed 1720 UTC 23 January 2021
Temperature: 6.0°C (43°F)
Dewpoint: 0.0°C (32°F) [RH = 65%]
Pressure (altimeter): 29.87 inches Hg (1011.6 mb)
Winds: from the SSW (200 degrees) at 7 MPH (6 knots; 3.1 m/s)
Visibility: 10 or more miles (16+ km)
Ceiling: at least 12,000 feet AGL
Clouds: sky clear below 12,000 feet AGL
Weather: automated observation with no human augmentation;
there may or may not be significant weather present at this time

METAR text: KMHV 231700Z AUTO 21004KT 10SM CLR 05/M00 A2987 RMK A01
Conditions at: KMHV (MOJAVE , CA, US) observed 1700 UTC 23 January 2021
Temperature: 5.0°C (41°F)
Dewpoint: 0.0°C (32°F) [RH = 70%]
Pressure (altimeter): 29.87 inches Hg (1011.6 mb)
Winds: from the SSW (210 degrees) at 5 MPH (4 knots; 2.1 m/s)
Visibility: 10 or more miles (16+ km)
Ceiling: at least 12,000 feet AGL
Clouds: sky clear below 12,000 feet AGL
Weather: automated observation with no human augmentation;
there may or may not be significant weather present at this time

METAR text: KMHV 231640Z AUTO 22004KT 10SM CLR 05/M00 A2986 RMK A01
Conditions at: KMHV (MOJAVE , CA, US) observed 1640 UTC 23 January 2021
Temperature: 5.0°C (41°F)
Dewpoint: 0.0°C (32°F) [RH = 70%]
Pressure (altimeter): 29.86 inches Hg (1011.3 mb)
Winds: from the SW (220 degrees) at 5 MPH (4 knots; 2.1 m/s)
Visibility: 10 or more miles (16+ km)
Ceiling: at least 12,000 feet AGL
Clouds: sky clear below 12,000 feet AGL
Weather: automated observation with no human augmentation;
there may or may not be significant weather present at this time

METAR text: KMHV 231620Z AUTO 23004KT 10SM CLR 04/M01 A2986 RMK A01
Conditions at: KMHV (MOJAVE , CA, US) observed 1620 UTC 23 January 2021
Temperature: 4.0°C (39°F)
Dewpoint: -1.0°C (30°F) [RH = 70%]
Pressure (altimeter): 29.86 inches Hg (1011.3 mb)
Winds: from the SW (230 degrees) at 5 MPH (4 knots; 2.1 m/s)
Visibility: 10 or more miles (16+ km)
Ceiling: at least 12,000 feet AGL
Clouds: sky clear below 12,000 feet AGL
Weather: automated observation with no human augmentation;
there may or may not be significant weather present at this time

METAR text: KMHV 231600Z AUTO 23004KT 10SM FEW120 03/M01 A2986 RMK A01
Conditions at: KMHV (MOJAVE , CA, US) observed 1600 UTC 23 January 2021
Temperature: 3.0°C (37°F)
Dewpoint: -1.0°C (30°F) [RH = 75%]
Pressure (altimeter): 29.86 inches Hg (1011.3 mb)
Winds: from the SW (230 degrees) at 5 MPH (4 knots; 2.1 m/s)
Visibility: 10 or more miles (16+ km)
Ceiling: at least 12,000 feet AGL
Clouds: few clouds at 12000 feet AGL
Weather: automated observation with no human augmentation;
there may or may not be significant weather present at this time

METAR text: KMHV 231540Z AUTO 23005KT 10SM FEW120 01/M02 A2985 RMK A01
Conditions at: KMHV (MOJAVE , CA, US) observed 1540 UTC 23 January 2021
Temperature: 1.0°C (34°F)
Dewpoint: -2.0°C (28°F) [RH = 80%]
Pressure (altimeter): 29.85 inches Hg (1010.9 mb)
Winds: from the SW (230 degrees) at 6 MPH (5 knots; 2.6 m/s)
Visibility: 10 or more miles (16+ km)
Ceiling: at least 12,000 feet AGL
Clouds: few clouds at 12000 feet AGL
Weather: automated observation with no human augmentation;
there may or may not be significant weather present at this time

METAR text: KMHV 231520Z AUTO 28007KT 10SM SCT049 02/M01 A2985 RMK A01
Conditions at: KMHV (MOJAVE , CA, US) observed 1520 UTC 23 January 2021
Temperature: 2.0°C (36°F)
Dewpoint: -1.0°C (30°F) [RH = 80%]
Pressure (altimeter): 29.85 inches Hg (1010.9 mb)
Winds: from the W (280 degrees) at 8 MPH (7 knots; 3.6 m/s)
Visibility: 10 or more miles (16+ km)
Ceiling: at least 12,000 feet AGL
Clouds: scattered clouds at 4900 feet AGL
Weather: automated observation with no human augmentation;
there may or may not be significant weather present at this time

METAR text: KMHV 231500Z AUTO 25006KT 10SM BKN049 BKN120 01/M01 A2985 RMK A01
Conditions at: KMHV (MOJAVE , CA, US) observed 1500 UTC 23 January 2021
Temperature: 1.0°C (34°F)
Dewpoint: -1.0°C (30°F) [RH = 86%]
Pressure (altimeter): 29.85 inches Hg (1010.9 mb)
Winds: from the WSW (250 degrees) at 7 MPH (6 knots; 3.1 m/s)
Visibility: 10 or more miles (16+ km)
Ceiling: 4900 feet AGL
Clouds: broken clouds at 4900 feet AGL
broken clouds at 12000 feet AGL
Weather: automated observation with no human augmentation;
there may or may not be significant weather present at this time

METAR text: KMHV 231440Z AUTO 24005KT 10SM FEW120 01/M02 A2985 RMK A01
Conditions at: KMHV (MOJAVE , CA, US) observed 1440 UTC 23 January 2021
Temperature: 1.0°C (34°F)
Dewpoint: -2.0°C (28°F) [RH = 80%]
Pressure (altimeter): 29.85 inches Hg (1010.9 mb)
Winds: from the WSW (240 degrees) at 6 MPH (5 knots; 2.6 m/s)
Visibility: 10 or more miles (16+ km)
Ceiling: at least 12,000 feet AGL
Clouds: few clouds at 12000 feet AGL
Weather: automated observation with no human augmentation;
there may or may not be significant weather present at this time

METAR text: KMHV 231420Z AUTO VRB04KT 10SM FEW120 02/M01 A2985 RMK A01
Conditions at: KMHV (MOJAVE , CA, US) observed 1420 UTC 23 January 2021
Temperature: 2.0°C (36°F)
Dewpoint: -1.0°C (30°F) [RH = 80%]
Pressure (altimeter): 29.85 inches Hg (1010.9 mb)
Winds: variable direction winds at 5 MPH (4 knots; 2.1 m/s)
Visibility: 10 or more miles (16+ km)
Ceiling: at least 12,000 feet AGL
Clouds: few clouds at 12000 feet AGL
Weather: automated observation with no human augmentation;
there may or may not be significant weather present at this time

METAR text: KMHV 231400Z AUTO 22005KT 10SM SCT120 02/M01 A2984 RMK A01
Conditions at: KMHV (MOJAVE , CA, US) observed 1400 UTC 23 January 2021
Temperature: 2.0°C (36°F)
Dewpoint: -1.0°C (30°F) [RH = 80%]
Pressure (altimeter): 29.84 inches Hg (1010.6 mb)
Winds: from the SW (220 degrees) at 6 MPH (5 knots; 2.6 m/s)
Visibility: 10 or more miles (16+ km)
Ceiling: at least 12,000 feet AGL
Clouds: scattered clouds at 12000 feet AGL
Weather: automated observation with no human augmentation;
there may or may not be significant weather present at this time

METAR text: KMHV 231340Z AUTO 25006KT 10SM SCT030 SCT045 BKN120 02/M01 A2984 RMK A01
Conditions at: KMHV (MOJAVE , CA, US) observed 1340 UTC 23 January 2021
Temperature: 2.0°C (36°F)
Dewpoint: -1.0°C (30°F) [RH = 80%]
Pressure (altimeter): 29.84 inches Hg (1010.6 mb)
Winds: from the WSW (250 degrees) at 7 MPH (6 knots; 3.1 m/s)
Visibility: 10 or more miles (16+ km)
Ceiling: 12000 feet AGL
Clouds: scattered clouds at 3000 feet AGL
scattered clouds at 4500 feet AGL
broken clouds at 12000 feet AGL
Weather: automated observation with no human augmentation;
there may or may not be significant weather present at this time

METAR text: KMHV 231320Z AUTO 24007KT 10SM BKN031 BKN045 02/M01 A2985 RMK A01
Conditions at: KMHV (MOJAVE , CA, US) observed 1320 UTC 23 January 2021
Temperature: 2.0°C (36°F)
Dewpoint: -1.0°C (30°F) [RH = 80%]
Pressure (altimeter): 29.85 inches Hg (1010.9 mb)
Winds: from the WSW (240 degrees) at 8 MPH (7 knots; 3.6 m/s)
Visibility: 10 or more miles (16+ km)
Ceiling: 3100 feet AGL
Clouds: broken clouds at 3100 feet AGL
broken clouds at 4500 feet AGL
Weather: automated observation with no human augmentation;
there may or may not be significant weather present at this time

METAR text: KMHV 231300Z AUTO 25006KT 10SM BKN032 BKN120 01/M02 A2984 RMK A01
Conditions at: KMHV (MOJAVE , CA, US) observed 1300 UTC 23 January 2021
Temperature: 1.0°C (34°F)
Dewpoint: -2.0°C (28°F) [RH = 80%]
Pressure (altimeter): 29.84 inches Hg (1010.6 mb)
Winds: from the WSW (250 degrees) at 7 MPH (6 knots; 3.1 m/s)
Visibility: 10 or more miles (16+ km)
Ceiling: 3200 feet AGL
Clouds: broken clouds at 3200 feet AGL
broken clouds at 12000 feet AGL
Weather: automated observation with no human augmentation;
there may or may not be significant weather present at this time

METAR text: KMHV 231240Z AUTO 27005KT 10SM SCT035 BKN120 01/M02 A2984 RMK A01
Conditions at: KMHV (MOJAVE , CA, US) observed 1240 UTC 23 January 2021
Temperature: 1.0°C (34°F)
Dewpoint: -2.0°C (28°F) [RH = 80%]
Pressure (altimeter): 29.84 inches Hg (1010.6 mb)
Winds: from the W (270 degrees) at 6 MPH (5 knots; 2.6 m/s)
Visibility: 10 or more miles (16+ km)
Ceiling: 12000 feet AGL
Clouds: scattered clouds at 3500 feet AGL
broken clouds at 12000 feet AGL
Weather: automated observation with no human augmentation;
there may or may not be significant weather present at this time

METAR text: KMHV 231220Z AUTO 25006KT 10SM FEW039 BKN048 BKN120 01/M02 A2984 RMK A01
Conditions at: KMHV (MOJAVE , CA, US) observed 1220 UTC 23 January 2021
Temperature: 1.0°C (34°F)
Dewpoint: -2.0°C (28°F) [RH = 80%]
Pressure (altimeter): 29.84 inches Hg (1010.6 mb)
Winds: from the WSW (250 degrees) at 7 MPH (6 knots; 3.1 m/s)
Visibility: 10 or more miles (16+ km)
Ceiling: 4800 feet AGL
Clouds: few clouds at 3900 feet AGL
broken clouds at 4800 feet AGL
broken clouds at 12000 feet AGL
Weather: automated observation with no human augmentation;
there may or may not be significant weather present at this time

METAR text: KMHV 231200Z AUTO 23007KT 10SM BKN047 01/M01 A2985 RMK A01
Conditions at: KMHV (MOJAVE , CA, US) observed 1200 UTC 23 January 2021
Temperature: 1.0°C (34°F)
Dewpoint: -1.0°C (30°F) [RH = 86%]
Pressure (altimeter): 29.85 inches Hg (1010.9 mb)
Winds: from the SW (230 degrees) at 8 MPH (7 knots; 3.6 m/s)
Visibility: 10 or more miles (16+ km)
Ceiling: 4700 feet AGL
Clouds: broken clouds at 4700 feet AGL
Weather: automated observation with no human augmentation;
there may or may not be significant weather present at this time

METAR text: KMHV 231140Z AUTO 22006KT 10SM CLR 01/M01 A2984 RMK A01
Conditions at: KMHV (MOJAVE , CA, US) observed 1140 UTC 23 January 2021
Temperature: 1.0°C (34°F)
Dewpoint: -1.0°C (30°F) [RH = 86%]
Pressure (altimeter): 29.84 inches Hg (1010.6 mb)
Winds: from the SW (220 degrees) at 7 MPH (6 knots; 3.1 m/s)
Visibility: 10 or more miles (16+ km)
Ceiling: at least 12,000 feet AGL
Clouds: sky clear below 12,000 feet AGL
Weather: automated observation with no human augmentation;
there may or may not be significant weather present at this time

METAR text: KMHV 231120Z AUTO 22005KT 10SM SCT120 01/M02 A2984 RMK A01
Conditions at: KMHV (MOJAVE , CA, US) observed 1120 UTC 23 January 2021
Temperature: 1.0°C (34°F)
Dewpoint: -2.0°C (28°F) [RH = 80%]
Pressure (altimeter): 29.84 inches Hg (1010.6 mb)
Winds: from the SW (220 degrees) at 6 MPH (5 knots; 2.6 m/s)
Visibility: 10 or more miles (16+ km)
Ceiling: at least 12,000 feet AGL
Clouds: scattered clouds at 12000 feet AGL
Weather: automated observation with no human augmentation;
there may or may not be significant weather present at this time

METAR text: KMHV 231100Z AUTO 23005KT 10SM FEW050 SCT120 01/M02 A2985 RMK A01
Conditions at: KMHV (MOJAVE , CA, US) observed 1100 UTC 23 January 2021
Temperature: 1.0°C (34°F)
Dewpoint: -2.0°C (28°F) [RH = 80%]
Pressure (altimeter): 29.85 inches Hg (1010.9 mb)
Winds: from the SW (230 degrees) at 6 MPH (5 knots; 2.6 m/s)
Visibility: 10 or more miles (16+ km)
Ceiling: at least 12,000 feet AGL
Clouds: few clouds at 5000 feet AGL
scattered clouds at 12000 feet AGL
Weather: automated observation with no human augmentation;
there may or may not be significant weather present at this time

METAR text: KMHV 231040Z AUTO 25003KT 10SM FEW035 FEW043 FEW120 01/M02 A2985 RMK A01
Conditions at: KMHV (MOJAVE , CA, US) observed 1040 UTC 23 January 2021
Temperature: 1.0°C (34°F)
Dewpoint: -2.0°C (28°F) [RH = 80%]
Pressure (altimeter): 29.85 inches Hg (1010.9 mb)
Winds: from the WSW (250 degrees) at 3 MPH (3 knots; 1.5 m/s)
Visibility: 10 or more miles (16+ km)
Ceiling: at least 12,000 feet AGL
Clouds: few clouds at 3500 feet AGL
few clouds at 4300 feet AGL
few clouds at 12000 feet AGL
Weather: automated observation with no human augmentation;
there may or may not be significant weather present at this time

METAR text: KMHV 231020Z AUTO 20005KT 10SM SCT043 SCT120 02/M01 A2986 RMK A01
Conditions at: KMHV (MOJAVE , CA, US) observed 1020 UTC 23 January 2021
Temperature: 2.0°C (36°F)
Dewpoint: -1.0°C (30°F) [RH = 80%]
Pressure (altimeter): 29.86 inches Hg (1011.3 mb)
Winds: from the SSW (200 degrees) at 6 MPH (5 knots; 2.6 m/s)
Visibility: 10 or more miles (16+ km)
Ceiling: at least 12,000 feet AGL
Clouds: scattered clouds at 4300 feet AGL
scattered clouds at 12000 feet AGL
Weather: automated observation with no human augmentation;
there may or may not be significant weather present at this time

METAR text: KMHV 231000Z AUTO 18008KT 10SM BKN042 BKN120 03/M02 A2986 RMK A01
Conditions at: KMHV (MOJAVE , CA, US) observed 1000 UTC 23 January 2021
Temperature: 3.0°C (37°F)
Dewpoint: -2.0°C (28°F) [RH = 70%]
Pressure (altimeter): 29.86 inches Hg (1011.3 mb)
Winds: from the S (180 degrees) at 9 MPH (8 knots; 4.1 m/s)
Visibility: 10 or more miles (16+ km)
Ceiling: 4200 feet AGL
Clouds: broken clouds at 4200 feet AGL
broken clouds at 12000 feet AGL
Weather: automated observation with no human augmentation;
there may or may not be significant weather present at this time

METAR text: KMHV 230940Z AUTO 25007KT 10SM CLR 04/M01 A2985 RMK A01
Conditions at: KMHV (MOJAVE , CA, US) observed 0940 UTC 23 January 2021
Temperature: 4.0°C (39°F)
Dewpoint: -1.0°C (30°F) [RH = 70%]
Pressure (altimeter): 29.85 inches Hg (1010.9 mb)
Winds: from the WSW (250 degrees) at 8 MPH (7 knots; 3.6 m/s)
Visibility: 10 or more miles (16+ km)
Ceiling: at least 12,000 feet AGL
Clouds: sky clear below 12,000 feet AGL
Weather: automated observation with no human augmentation;
there may or may not be significant weather present at this time

METAR text: KMHV 230920Z AUTO 26009KT 10SM CLR 04/M01 A2986 RMK A01
Conditions at: KMHV (MOJAVE , CA, US) observed 0920 UTC 23 January 2021
Temperature: 4.0°C (39°F)
Dewpoint: -1.0°C (30°F) [RH = 70%]
Pressure (altimeter): 29.86 inches Hg (1011.3 mb)
Winds: from the W (260 degrees) at 10 MPH (9 knots; 4.6 m/s)
Visibility: 10 or more miles (16+ km)
Ceiling: at least 12,000 feet AGL
Clouds: sky clear below 12,000 feet AGL
Weather: automated observation with no human augmentation;
there may or may not be significant weather present at this time

METAR text: KMHV 230900Z AUTO 24009G14KT 10SM FEW033 05/M01 A2985 RMK A01
Conditions at: KMHV (MOJAVE , CA, US) observed 0900 UTC 23 January 2021
Temperature: 5.0°C (41°F)
Dewpoint: -1.0°C (30°F) [RH = 65%]
Pressure (altimeter): 29.85 inches Hg (1010.9 mb)
Winds: from the WSW (240 degrees) at 10 MPH (9 knots; 4.6 m/s)
gusting to 16 MPH (14 knots; 7.2 m/s)
Visibility: 10 or more miles (16+ km)
Ceiling: at least 12,000 feet AGL
Clouds: few clouds at 3300 feet AGL
Weather: automated observation with no human augmentation;
there may or may not be significant weather present at this time

METAR text: KMHV 230840Z AUTO 26011KT 10SM FEW042 05/M01 A2985 RMK A01
Conditions at: KMHV (MOJAVE , CA, US) observed 0840 UTC 23 January 2021
Temperature: 5.0°C (41°F)
Dewpoint: -1.0°C (30°F) [RH = 65%]
Pressure (altimeter): 29.85 inches Hg (1010.9 mb)
Winds: from the W (260 degrees) at 13 MPH (11 knots; 5.7 m/s)
Visibility: 10 or more miles (16+ km)
Ceiling: at least 12,000 feet AGL
Clouds: few clouds at 4200 feet AGL
Weather: automated observation with no human augmentation;
there may or may not be significant weather present at this time

METAR text: KMHV 230820Z AUTO 23008G15KT 10SM FEW042 05/M01 A2985 RMK A01
Conditions at: KMHV (MOJAVE , CA, US) observed 0820 UTC 23 January 2021
Temperature: 5.0°C (41°F)
Dewpoint: -1.0°C (30°F) [RH = 65%]
Pressure (altimeter): 29.85 inches Hg (1010.9 mb)
Winds: from the SW (230 degrees) at 9 MPH (8 knots; 4.1 m/s)
gusting to 17 MPH (15 knots; 7.7 m/s)
Visibility: 10 or more miles (16+ km)
Ceiling: at least 12,000 feet AGL
Clouds: few clouds at 4200 feet AGL
Weather: automated observation with no human augmentation;
there may or may not be significant weather present at this time

METAR text: KMHV 230800Z AUTO 26011G17KT 10SM CLR 05/M01 A2985 RMK A01
Conditions at: KMHV (MOJAVE , CA, US) observed 0800 UTC 23 January 2021
Temperature: 5.0°C (41°F)
Dewpoint: -1.0°C (30°F) [RH = 65%]
Pressure (altimeter): 29.85 inches Hg (1010.9 mb)
Winds: from the W (260 degrees) at 13 MPH (11 knots; 5.7 m/s)
gusting to 20 MPH (17 knots; 8.7 m/s)
Visibility: 10 or more miles (16+ km)
Ceiling: at least 12,000 feet AGL
Clouds: sky clear below 12,000 feet AGL
Weather: automated observation with no human augmentation;
there may or may not be significant weather present at this time

METAR text: KMHV 230740Z AUTO VRB03G10KT 10SM FEW034 SCT043 04/M02 A2985 RMK A01
Conditions at: KMHV (MOJAVE , CA, US) observed 0740 UTC 23 January 2021
Temperature: 4.0°C (39°F)
Dewpoint: -2.0°C (28°F) [RH = 65%]
Pressure (altimeter): 29.85 inches Hg (1010.9 mb)
Winds: variable direction winds at 3 MPH (3 knots; 1.5 m/s)
gusting to 12 MPH (10 knots; 5.1 m/s)
Visibility: 10 or more miles (16+ km)
Ceiling: at least 12,000 feet AGL
Clouds: few clouds at 3400 feet AGL
scattered clouds at 4300 feet AGL
Weather: automated observation with no human augmentation;
there may or may not be significant weather present at this time

METAR text: KMHV 230720Z AUTO 29005KT 10SM FEW033 BKN042 OVC049 04/M02 A2987 RMK A01
Conditions at: KMHV (MOJAVE , CA, US) observed 0720 UTC 23 January 2021
Temperature: 4.0°C (39°F)
Dewpoint: -2.0°C (28°F) [RH = 65%]
Pressure (altimeter): 29.87 inches Hg (1011.6 mb)
Winds: from the WNW (290 degrees) at 6 MPH (5 knots; 2.6 m/s)
Visibility: 10 or more miles (16+ km)
Ceiling: 4200 feet AGL
Clouds: few clouds at 3300 feet AGL
broken clouds at 4200 feet AGL
overcast cloud deck at 4900 feet AGL
Weather: automated observation with no human augmentation;
there may or may not be significant weather present at this time

METAR text: KMHV 230700Z AUTO 24006KT 10SM FEW040 BKN049 05/M02 A2987 RMK A01
Conditions at: KMHV (MOJAVE , CA, US) observed 0700 UTC 23 January 2021
Temperature: 5.0°C (41°F)
Dewpoint: -2.0°C (28°F) [RH = 60%]
Pressure (altimeter): 29.87 inches Hg (1011.6 mb)
Winds: from the WSW (240 degrees) at 7 MPH (6 knots; 3.1 m/s)
Visibility: 10 or more miles (16+ km)
Ceiling: 4900 feet AGL
Clouds: few clouds at 4000 feet AGL
broken clouds at 4900 feet AGL
Weather: automated observation with no human augmentation;
there may or may not be significant weather present at this time

METAR text: KMHV 230640Z AUTO 23005KT 10SM SCT043 BKN050 04/M02 A2987 RMK A01
Conditions at: KMHV (MOJAVE , CA, US) observed 0640 UTC 23 January 2021
Temperature: 4.0°C (39°F)
Dewpoint: -2.0°C (28°F) [RH = 65%]
Pressure (altimeter): 29.87 inches Hg (1011.6 mb)
Winds: from the SW (230 degrees) at 6 MPH (5 knots; 2.6 m/s)
Visibility: 10 or more miles (16+ km)
Ceiling: 5000 feet AGL
Clouds: scattered clouds at 4300 feet AGL
broken clouds at 5000 feet AGL
Weather: automated observation with no human augmentation;
there may or may not be significant weather present at this time

METAR text: KMHV 230620Z AUTO 25009KT 10SM FEW027 BKN043 OVC050 04/M02 A2987 RMK A01
Conditions at: KMHV (MOJAVE , CA, US) observed 0620 UTC 23 January 2021
Temperature: 4.0°C (39°F)
Dewpoint: -2.0°C (28°F) [RH = 65%]
Pressure (altimeter): 29.87 inches Hg (1011.6 mb)
Winds: from the WSW (250 degrees) at 10 MPH (9 knots; 4.6 m/s)
Visibility: 10 or more miles (16+ km)
Ceiling: 4300 feet AGL
Clouds: few clouds at 2700 feet AGL
broken clouds at 4300 feet AGL
overcast cloud deck at 5000 feet AGL
Weather: automated observation with no human augmentation;
there may or may not be significant weather present at this time

METAR text: KMHV 230600Z AUTO 24008KT 10SM FEW024 FEW035 BKN042 05/M02 A2986 RMK A01
Conditions at: KMHV (MOJAVE , CA, US) observed 0600 UTC 23 January 2021
Temperature: 5.0°C (41°F)
Dewpoint: -2.0°C (28°F) [RH = 60%]
Pressure (altimeter): 29.86 inches Hg (1011.3 mb)
Winds: from the WSW (240 degrees) at 9 MPH (8 knots; 4.1 m/s)
Visibility: 10 or more miles (16+ km)
Ceiling: 4200 feet AGL
Clouds: few clouds at 2400 feet AGL
few clouds at 3500 feet AGL
broken clouds at 4200 feet AGL
Weather: automated observation with no human augmentation;
there may or may not be significant weather present at this time

METAR text: KMHV 230540Z AUTO 24008KT 10SM FEW034 BKN043 OVC050 04/M02 A2986 RMK A01
Conditions at: KMHV (MOJAVE , CA, US) observed 0540 UTC 23 January 2021
Temperature: 4.0°C (39°F)
Dewpoint: -2.0°C (28°F) [RH = 65%]
Pressure (altimeter): 29.86 inches Hg (1011.3 mb)
Winds: from the WSW (240 degrees) at 9 MPH (8 knots; 4.1 m/s)
Visibility: 10 or more miles (16+ km)
Ceiling: 4300 feet AGL
Clouds: few clouds at 3400 feet AGL
broken clouds at 4300 feet AGL
overcast cloud deck at 5000 feet AGL
Weather: automated observation with no human augmentation;
there may or may not be significant weather present at this time

METAR text: KMHV 230520Z AUTO 25013G19KT 10SM FEW034 BKN043 BKN050 06/M01 A2986 RMK A01
Conditions at: KMHV (MOJAVE , CA, US) observed 0520 UTC 23 January 2021
Temperature: 6.0°C (43°F)
Dewpoint: -1.0°C (30°F) [RH = 61%]
Pressure (altimeter): 29.86 inches Hg (1011.3 mb)
Winds: from the WSW (250 degrees) at 15 MPH (13 knots; 6.7 m/s)
gusting to 22 MPH (19 knots; 9.8 m/s)
Visibility: 10 or more miles (16+ km)
Ceiling: 4300 feet AGL
Clouds: few clouds at 3400 feet AGL
broken clouds at 4300 feet AGL
broken clouds at 5000 feet AGL
Weather: automated observation with no human augmentation;
there may or may not be significant weather present at this time

METAR text: KMHV 230500Z AUTO 29015G24KT 10SM FEW030 SCT042 SCT050 06/M01 A2985 RMK A01
Conditions at: KMHV (MOJAVE , CA, US) observed 0500 UTC 23 January 2021
Temperature: 6.0°C (43°F)
Dewpoint: -1.0°C (30°F) [RH = 61%]
Pressure (altimeter): 29.85 inches Hg (1010.9 mb)
Winds: from the WNW (290 degrees) at 17 MPH (15 knots; 7.7 m/s)
gusting to 28 MPH (24 knots; 12.3 m/s)
Visibility: 10 or more miles (16+ km)
Ceiling: at least 12,000 feet AGL
Clouds: few clouds at 3000 feet AGL
scattered clouds at 4200 feet AGL
scattered clouds at 5000 feet AGL
Weather: automated observation with no human augmentation;
there may or may not be significant weather present at this time

METAR text: KMHV 230440Z AUTO 27016G26KT 10SM FEW043 SCT050 06/M02 A2985 RMK A01
Conditions at: KMHV (MOJAVE , CA, US) observed 0440 UTC 23 January 2021
Temperature: 6.0°C (43°F)
Dewpoint: -2.0°C (28°F) [RH = 56%]
Pressure (altimeter): 29.85 inches Hg (1010.9 mb)
Winds: from the W (270 degrees) at 18 MPH (16 knots; 8.2 m/s)
gusting to 30 MPH (26 knots; 13.4 m/s)
Visibility: 10 or more miles (16+ km)
Ceiling: at least 12,000 feet AGL
Clouds: few clouds at 4300 feet AGL
scattered clouds at 5000 feet AGL
Weather: automated observation with no human augmentation;
there may or may not be significant weather present at this time

METAR text: KMHV 230420Z AUTO 29020G26KT 10SM FEW029 FEW034 FEW044 06/M01 A2984 RMK A01
Conditions at: KMHV (MOJAVE , CA, US) observed 0420 UTC 23 January 2021
Temperature: 6.0°C (43°F)
Dewpoint: -1.0°C (30°F) [RH = 61%]
Pressure (altimeter): 29.84 inches Hg (1010.6 mb)
Winds: from the WNW (290 degrees) at 23 MPH (20 knots; 10.3 m/s)
gusting to 30 MPH (26 knots; 13.4 m/s)
Visibility: 10 or more miles (16+ km)
Ceiling: at least 12,000 feet AGL
Clouds: few clouds at 2900 feet AGL
few clouds at 3400 feet AGL
few clouds at 4400 feet AGL
Weather: automated observation with no human augmentation;
there may or may not be significant weather present at this time

METAR text: KMHV 230400Z AUTO 28019G26KT 10SM FEW029 FEW036 FEW043 06/M01 A2984 RMK A01 LTG DSNT NE
Conditions at: KMHV (MOJAVE , CA, US) observed 0400 UTC 23 January 2021
Temperature: 6.0°C (43°F)
Dewpoint: -1.0°C (30°F) [RH = 61%]
Pressure (altimeter): 29.84 inches Hg (1010.6 mb)
Winds: from the W (280 degrees) at 22 MPH (19 knots; 9.8 m/s)
gusting to 30 MPH (26 knots; 13.4 m/s)
Visibility: 10 or more miles (16+ km)
Ceiling: at least 12,000 feet AGL
Clouds: few clouds at 2900 feet AGL
few clouds at 3600 feet AGL
few clouds at 4300 feet AGL
Weather: automated observation with no human augmentation;
there may or may not be significant weather present at this time

METAR text: KMHV 230340Z AUTO 27016KT 10SM CLR 06/M01 A2984 RMK A01
Conditions at: KMHV (MOJAVE , CA, US) observed 0340 UTC 23 January 2021
Temperature: 6.0°C (43°F)
Dewpoint: -1.0°C (30°F) [RH = 61%]
Pressure (altimeter): 29.84 inches Hg (1010.6 mb)
Winds: from the W (270 degrees) at 18 MPH (16 knots; 8.2 m/s)
Visibility: 10 or more miles (16+ km)
Ceiling: at least 12,000 feet AGL
Clouds: sky clear below 12,000 feet AGL
Weather: automated observation with no human augmentation;
there may or may not be significant weather present at this time

METAR text: KMHV 230320Z AUTO 26021G28KT 10SM FEW050 FEW060 06/M01 A2984 RMK A01
Conditions at: KMHV (MOJAVE , CA, US) observed 0320 UTC 23 January 2021
Temperature: 6.0°C (43°F)
Dewpoint: -1.0°C (30°F) [RH = 61%]
Pressure (altimeter): 29.84 inches Hg (1010.6 mb)
Winds: from the W (260 degrees) at 24 MPH (21 knots; 10.8 m/s)
gusting to 32 MPH (28 knots; 14.4 m/s)
Visibility: 10 or more miles (16+ km)
Ceiling: at least 12,000 feet AGL
Clouds: few clouds at 5000 feet AGL
few clouds at 6000 feet AGL
Weather: automated observation with no human augmentation;
there may or may not be significant weather present at this time

METAR text: KMHV 230300Z AUTO 27016KT 10SM BKN047 BKN065 06/00 A2984 RMK A01
Conditions at: KMHV (MOJAVE , CA, US) observed 0300 UTC 23 January 2021
Temperature: 6.0°C (43°F)
Dewpoint: 0.0°C (32°F) [RH = 65%]
Pressure (altimeter): 29.84 inches Hg (1010.6 mb)
Winds: from the W (270 degrees) at 18 MPH (16 knots; 8.2 m/s)
Visibility: 10 or more miles (16+ km)
Ceiling: 4700 feet AGL
Clouds: broken clouds at 4700 feet AGL
broken clouds at 6500 feet AGL
Weather: automated observation with no human augmentation;
there may or may not be significant weather present at this time

METAR text: KMHV 230240Z AUTO 27012G18KT 10SM FEW008 SCT039 BKN045 06/01 A2985 RMK A01
Conditions at: KMHV (MOJAVE , CA, US) observed 0240 UTC 23 January 2021
Temperature: 6.0°C (43°F)
Dewpoint: 1.0°C (34°F) [RH = 70%]
Pressure (altimeter): 29.85 inches Hg (1010.9 mb)
Winds: from the W (270 degrees) at 14 MPH (12 knots; 6.2 m/s)
gusting to 21 MPH (18 knots; 9.3 m/s)
Visibility: 10 or more miles (16+ km)
Ceiling: 4500 feet AGL
Clouds: few clouds at 800 feet AGL
scattered clouds at 3900 feet AGL
broken clouds at 4500 feet AGL
Weather: automated observation with no human augmentation;
there may or may not be significant weather present at this time

METAR text: KMHV 230220Z AUTO 30015G21KT 9SM OVC037 07/02 A2985 RMK A01
Conditions at: KMHV (MOJAVE , CA, US) observed 0220 UTC 23 January 2021
Temperature: 7.0°C (45°F)
Dewpoint: 2.0°C (36°F) [RH = 70%]
Pressure (altimeter): 29.85 inches Hg (1010.9 mb)
Winds: from the WNW (300 degrees) at 17 MPH (15 knots; 7.7 m/s)
gusting to 24 MPH (21 knots; 10.8 m/s)
Visibility: 9 miles (14 km)
Ceiling: 3700 feet AGL
Clouds: overcast cloud deck at 3700 feet AGL
Weather: automated observation with no human augmentation;
there may or may not be significant weather present at this time

METAR text: KMHV 230200Z AUTO 27008G13KT 10SM OVC035 08/00 A2984 RMK A01
Conditions at: KMHV (MOJAVE , CA, US) observed 0200 UTC 23 January 2021
Temperature: 8.0°C (46°F)
Dewpoint: 0.0°C (32°F) [RH = 57%]
Pressure (altimeter): 29.84 inches Hg (1010.6 mb)
Winds: from the W (270 degrees) at 9 MPH (8 knots; 4.1 m/s)
gusting to 15 MPH (13 knots; 6.7 m/s)
Visibility: 10 or more miles (16+ km)
Ceiling: 3500 feet AGL
Clouds: overcast cloud deck at 3500 feet AGL
Weather: automated observation with no human augmentation;
there may or may not be significant weather present at this time

METAR text: KMHV 230140Z AUTO 25008G18KT 10SM OVC033 09/00 A2983 RMK A01
Conditions at: KMHV (MOJAVE , CA, US) observed 0140 UTC 23 January 2021
Temperature: 9.0°C (48°F)
Dewpoint: 0.0°C (32°F) [RH = 53%]
Pressure (altimeter): 29.83 inches Hg (1010.2 mb)
Winds: from the WSW (250 degrees) at 9 MPH (8 knots; 4.1 m/s)
gusting to 21 MPH (18 knots; 9.3 m/s)
Visibility: 10 or more miles (16+ km)
Ceiling: 3300 feet AGL
Clouds: overcast cloud deck at 3300 feet AGL
Weather: automated observation with no human augmentation;
there may or may not be significant weather present at this time